IBHOPA7 Weather Reports


Display with metric or nautical units.
time (UTC)temp
F
wind
direction
speed
MPH
gust
MPH
rain 1hr
in
rain 24hr
in
rain mn
in
humidity
%
barometer
mb
20240521140058 0 0.0 0.0 0.00 0.00 0.00 1006.8
20240521134550 100 149 0.0 3.0 0.00 0.00 0.00 26 1006.6
20240521133054 100 1.0 2.0 0.00 0.00 0.00 26 1006.6
20240521131604 100 190 1.0 6.0 0.00 0.00 0.00 26 1006.5
20240521130058 0 0.0 0.0 0.00 0.00 0.00 1006.4
20240521124556 101 219 4.0 7.0 0.00 0.00 0.00 26 1006.3
20240521121559 102 3.0 9.0 0.00 0.00 0.00 26 1005.9
20240521120117 102 180 4.0 8.0 0.00 0.00 0.00 25 1005.7
20240521114608 0 0.0 0.0 0.00 0.00 0.00 1005.5
20240521113050 104 6.0 12.0 0.00 0.00 0.00 24 1005.5
20240521111551 104 224 4.0 9.0 0.00 0.00 0.00 24 1005.7
20240521110051 106 259 2.0 6.0 0.00 0.00 0.00 22 1005.8
20240521104557 107 48 0.0 5.0 0.00 0.00 0.00 18 1005.8
20240521103046 106 2.0 4.0 0.00 0.00 0.00 19 1005.9
20240521101600 106 57 2.0 9.0 0.00 0.00 0.00 19 1006.2
20240521100049 105 35 5.0 12.0 0.00 0.00 0.00 21 1006.3
20240521094543 106 38 3.0 9.0 0.00 0.00 0.00 19 1006.4
20240521093044 107 50 4.0 10.0 0.00 0.00 0.00 18 1006.5
20240521091553 107 107 3.0 9.0 0.00 0.00 0.00 19 1006.7
20240521090044 106 65 2.0 8.0 0.00 0.00 0.00 19 1006.9
20240521084546 106 325 2.0 9.0 0.00 0.00 0.00 19 1007.1
20240521083052 107 298 4.0 9.0 0.00 0.00 0.00 19 1007.4
20240521081546 106 107 4.0 8.0 0.00 0.00 0.00 17 1007.6
20240521080059 106 117 6.0 10.0 0.00 0.00 0.00 19 1007.8
20240521074542 105 9 1.0 9.0 0.00 0.00 0.00 21 1007.9
20240521073048 105 38 4.0 9.0 0.00 0.00 0.00 21 1008.1
20240521071603 104 109 3.0 10.0 0.00 0.00 0.00 20 1008.3
20240521070103 104 32 4.0 9.0 0.00 0.00 0.00 21 1008.6
20240521064559 103 340 3.0 9.0 0.00 0.00 0.00 23 1008.7
20240521063047 103 12 4.0 9.0 0.00 0.00 0.00 24 1008.9
20240521061547 104 9 3.0 7.0 0.00 0.00 0.00 24 1009.1
20240521060054 103 298 1.0 6.0 0.00 0.00 0.00 25 1009.2
20240521054547 102 281 5.0 10.0 0.00 0.00 0.00 26 1009.4
20240521053044 101 205 2.0 6.0 0.00 0.00 0.00 26 1009.4
20240521051548 100 267 3.0 9.0 0.00 0.00 0.00 27 1009.5
20240521050057 99 0 1.0 9.0 0.00 0.00 0.00 29 1009.6
20240521044551 98 222 4.0 10.0 0.00 0.00 0.00 29 1009.7
20240521043047 97 175 3.0 13.0 0.00 0.00 0.00 31 1009.8
20240521041546 96 217 4.0 11.0 0.00 0.00 0.00 32 1009.8
20240521040054 96 241 5.0 12.0 0.00 0.00 0.00 33 1009.8
20240521034551 95 257 5.0 12.0 0.00 0.00 0.00 34 1009.8
20240521033055 94 221 5.0 11.0 0.00 0.00 0.00 35 1009.9
20240521031558 92 233 4.0 14.0 0.00 0.00 0.00 38 1009.8
20240521030042 91 245 5.0 13.0 0.00 0.00 0.00 38 1009.8
20240521024551 91 222 3.0 10.0 0.00 0.00 0.00 39 1009.7
20240521023042 90 250 6.0 12.0 0.00 0.00 0.00 40 1009.8
20240521021548 89 153 4.0 12.0 0.00 0.00 0.00 41 1009.6
20240521020059 88 170 4.0 12.0 0.00 0.00 0.00 42 1009.4
20240521014558 87 205 6.0 13.0 0.00 0.00 0.00 43 1009.1
20240521013048 86 200 6.0 12.0 0.00 0.00 0.00 44 1008.9
20240521011549 86 181 6.0 10.0 0.00 0.00 0.00 45 1008.8
20240521010047 85 188 4.0 10.0 0.00 0.00 0.00 45 1008.7
20240521004550 85 223 5.0 13.0 0.00 0.00 0.00 45 1008.6
20240521003051 85 207 4.0 9.0 0.00 0.00 0.00 45 1008.6
20240521001558 85 195 5.0 12.0 0.00 0.00 0.00 45 1008.5
20240521000051 85 210 7.0 15.0 0.00 0.00 0.00 45 1008.4
20240520234545 85 214 6.0 13.0 0.00 0.00 0.00 45 1008.2
20240520233049 85 192 6.0 12.0 0.00 0.00 0.00 45 1008.0
20240520231600 85 284 4.0 11.0 0.00 0.00 0.00 46 1007.8
20240520230059 85 242 4.0 9.0 0.00 0.00 0.00 46 1007.6
20240520224552 86 244 4.0 10.0 0.00 0.00 0.00 45 1007.5
20240520223135 86 215 5.0 10.0 0.00 0.00 0.00 44 1007.4
20240520221545 86 231 4.0 13.0 0.00 0.00 0.00 44 1007.4
20240520220100 86 207 3.0 10.0 0.00 0.00 0.00 44 1007.5
20240520214546 86 238 3.0 10.0 0.00 0.00 0.00 45 1007.4
20240520213046 86 241 4.0 10.0 0.00 0.00 0.00 45 1007.5
20240520211546 87 212 4.0 8.0 0.00 0.00 0.00 45 1007.7
20240520210048 87 196 5.0 11.0 0.00 0.00 0.00 45 1007.8
20240520204545 88 226 5.0 15.0 0.00 0.00 0.00 43 1007.9
20240520203044 89 182 3.0 15.0 0.00 0.00 0.00 41 1007.9
20240520201556 89 210 4.0 19.0 0.00 0.00 0.00 40 1007.9
20240520200043 89 165 2.0 9.0 0.00 0.00 0.00 41 1008.1
20240520194551 89 236 2.0 9.0 0.00 0.00 0.00 41 1007.8
20240520193042 90 131 4.0 10.0 0.00 0.00 0.00 40 1008.1
20240520191556 90 141 6.0 15.0 0.00 0.00 0.00 39 1008.3
20240520190053 91 135 9.0 17.0 0.00 0.00 0.00 37 1008.4
20240520184547 92 95 5.0 13.0 0.00 0.00 0.00 35 1008.3
20240520183044 91 109 6.0 10.0 0.00 0.00 0.00 35 1008.7
20240520181604 91 165 4.0 11.0 0.00 0.00 0.00 36 1008.9
20240520180057 91 175 3.0 7.0 0.00 0.00 0.00 38 1009.2
20240520174548 91 126 4.0 10.0 0.00 0.00 0.00 38 1009.5
20240520173046 91 79 3.0 6.0 0.00 0.00 0.00 42 1009.7
20240520171549 91 93 2.0 6.0 0.00 0.00 0.00 43 1009.8
20240520170049 92 105 3.0 9.0 0.00 0.00 0.00 42 1009.6
20240520164605 92 95 5.0 12.0 0.00 0.00 0.00 42 1008.9
20240520163050 92 167 2.0 9.0 0.00 0.00 0.00 40 1008.4
20240520161553 93 140 3.0 12.0 0.00 0.00 0.00 37 1008.1
20240520160048 93 136 8.0 12.0 0.00 0.00 0.00 35 1008.1
20240520154550 93 117 8.0 13.0 0.00 0.00 0.00 32 1008.1
20240520153101 94 127 6.0 12.0 0.00 0.00 0.00 31 1008.1
20240520151606 95 111 7.0 14.0 0.00 0.00 0.00 30 1007.9
20240520150049 96 84 7.0 15.0 0.00 0.00 0.00 29 1007.7
20240520144613 96 69 5.0 10.0 0.00 0.00 0.00 30 1007.4
20240520143056 97 107 3.0 9.0 0.00 0.00 0.00 30 1007.0
20240520141605 97 82 2.0 4.0 0.00 0.00 0.00 31 1006.6